sensor_id;sensor_type;location;lat;lon;timestamp;pressure;altitude;pressure_sealevel;temperature;humidity
33155;BME280;19511;42.682;23.332;2023-02-17T00:00:49;96045.00;;;1.05;100.00
33155;BME280;19511;42.682;23.332;2023-02-17T00:03:14;96073.00;;;1.23;100.00
33155;BME280;19511;42.682;23.332;2023-02-17T00:05:39;96094.63;;;1.19;100.00
33155;BME280;19511;42.682;23.332;2023-02-17T00:08:05;96094.00;;;1.22;100.00
33155;BME280;19511;42.682;23.332;2023-02-17T00:10:30;96090.19;;;1.14;100.00
33155;BME280;19511;42.682;23.332;2023-02-17T00:12:56;96084.88;;;1.18;100.00
33155;BME280;19511;42.682;23.332;2023-02-17T00:15:21;96040.91;;;0.90;100.00
33155;BME280;19511;42.682;23.332;2023-02-17T00:17:51;95969.88;;;0.56;100.00
33155;BME280;19511;42.682;23.332;2023-02-17T00:20:17;96092.75;;;1.11;100.00
33155;BME280;19511;42.682;23.332;2023-02-17T00:22:42;96065.06;;;0.91;100.00
33155;BME280;19511;42.682;23.332;2023-02-17T00:25:10;96082.41;;;0.95;100.00
33155;BME280;19511;42.682;23.332;2023-02-17T00:27:36;96016.16;;;0.56;100.00
33155;BME280;19511;42.682;23.332;2023-02-17T00:30:01;96085.56;;;0.97;100.00
33155;BME280;19511;42.682;23.332;2023-02-17T00:32:29;96069.91;;;0.94;100.00
33155;BME280;19511;42.682;23.332;2023-02-17T00:34:54;96066.34;;;0.94;100.00
33155;BME280;19511;42.682;23.332;2023-02-17T00:37:23;96068.44;;;0.97;100.00
33155;BME280;19511;42.682;23.332;2023-02-17T00:39:49;96068.75;;;1.04;100.00
33155;BME280;19511;42.682;23.332;2023-02-17T00:42:14;96048.91;;;0.86;100.00
33155;BME280;19511;42.682;23.332;2023-02-17T00:44:40;96051.47;;;0.91;100.00
33155;BME280;19511;42.682;23.332;2023-02-17T00:47:05;96052.88;;;0.97;100.00
33155;BME280;19511;42.682;23.332;2023-02-17T00:49:38;96075.56;;;1.19;100.00
33155;BME280;19511;42.682;23.332;2023-02-17T00:52:03;96070.03;;;1.07;100.00
33155;BME280;19511;42.682;23.332;2023-02-17T00:54:29;96067.34;;;0.89;100.00
33155;BME280;19511;42.682;23.332;2023-02-17T00:56:54;96074.41;;;0.90;100.00
33155;BME280;19511;42.682;23.332;2023-02-17T00:59:20;96065.44;;;0.81;100.00
33155;BME280;19511;42.682;23.332;2023-02-17T01:01:45;96065.75;;;0.88;100.00
33155;BME280;19511;42.682;23.332;2023-02-17T01:04:11;96060.69;;;0.60;100.00
33155;BME280;19511;42.682;23.332;2023-02-17T01:06:38;95994.94;;;0.06;100.00
33155;BME280;19511;42.682;23.332;2023-02-17T01:09:06;95933.84;;;-0.32;100.00
33155;BME280;19511;42.682;23.332;2023-02-17T01:11:33;95908.94;;;-0.52;100.00
33155;BME280;19511;42.682;23.332;2023-02-17T01:14:00;96050.97;;;0.33;100.00
33155;BME280;19511;42.682;23.332;2023-02-17T01:16:28;95990.47;;;-0.08;100.00
33155;BME280;19511;42.682;23.332;2023-02-17T01:18:54;96044.41;;;0.08;100.00
33155;BME280;19511;42.682;23.332;2023-02-17T01:21:25;96051.25;;;0.14;100.00
33155;BME280;19511;42.682;23.332;2023-02-17T01:23:53;96047.44;;;0.06;100.00
33155;BME280;19511;42.682;23.332;2023-02-17T01:26:21;95941.53;;;-0.52;100.00
33155;BME280;19511;42.682;23.332;2023-02-17T01:28:47;96039.44;;;0.01;100.00
33155;BME280;19511;42.682;23.332;2023-02-17T01:31:14;95988.72;;;-0.21;100.00
33155;BME280;19511;42.682;23.332;2023-02-17T01:33:40;96051.44;;;0.26;100.00
33155;BME280;19511;42.682;23.332;2023-02-17T01:36:08;96029.66;;;0.09;100.00
33155;BME280;19511;42.682;23.332;2023-02-17T01:38:37;96045.69;;;0.19;100.00
33155;BME280;19511;42.682;23.332;2023-02-17T01:41:04;96041.66;;;0.34;100.00
33155;BME280;19511;42.682;23.332;2023-02-17T01:43:29;96052.06;;;0.41;100.00
33155;BME280;19511;42.682;23.332;2023-02-17T01:45:56;96032.69;;;0.34;100.00
33155;BME280;19511;42.682;23.332;2023-02-17T01:48:43;96050.13;;;0.50;100.00
33155;BME280;19511;42.682;23.332;2023-02-17T01:51:18;96053.00;;;0.45;100.00
33155;BME280;19511;42.682;23.332;2023-02-17T01:54:10;96050.81;;;0.29;100.00
33155;BME280;19511;42.682;23.332;2023-02-17T01:56:40;96050.75;;;0.47;100.00
33155;BME280;19511;42.682;23.332;2023-02-17T01:59:11;96061.34;;;0.40;100.00
33155;BME280;19511;42.682;23.332;2023-02-17T02:01:38;96054.16;;;0.26;100.00
33155;BME280;19511;42.682;23.332;2023-02-17T02:04:08;96047.44;;;0.06;100.00
33155;BME280;19511;42.682;23.332;2023-02-17T02:06:38;96052.56;;;-0.01;100.00
33155;BME280;19511;42.682;23.332;2023-02-17T02:09:11;96057.03;;;-0.14;100.00
33155;BME280;19511;42.682;23.332;2023-02-17T02:11:39;95927.75;;;-0.99;100.00
33155;BME280;19511;42.682;23.332;2023-02-17T02:14:06;96047.06;;;-0.36;100.00
33155;BME280;19511;42.682;23.332;2023-02-17T02:36:05;96038.13;;;-0.19;100.00
33155;BME280;19511;42.682;23.332;2023-02-17T02:38:48;96044.56;;;-0.15;100.00
33155;BME280;19511;42.682;23.332;2023-02-17T02:41:25;96042.94;;;-0.25;100.00
33155;BME280;19511;42.682;23.332;2023-02-17T02:43:52;96040.03;;;-0.37;100.00
33155;BME280;19511;42.682;23.332;2023-02-17T02:46:18;96036.84;;;-0.22;100.00
33155;BME280;19511;42.682;23.332;2023-02-17T02:48:44;96037.00;;;-0.18;100.00
33155;BME280;19511;42.682;23.332;2023-02-17T02:53:59;96044.56;;;-0.06;100.00
33155;BME280;19511;42.682;23.332;2023-02-17T03:04:35;96029.00;;;-0.41;100.00
33155;BME280;19511;42.682;23.332;2023-02-17T03:07:10;95918.63;;;-1.52;100.00
33155;BME280;19511;42.682;23.332;2023-02-17T03:09:53;96030.19;;;-0.82;100.00
33155;BME280;19511;42.682;23.332;2023-02-17T03:12:20;95970.59;;;-1.27;100.00
33155;BME280;19511;42.682;23.332;2023-02-17T03:14:52;96042.88;;;-0.60;100.00
33155;BME280;19511;42.682;23.332;2023-02-17T03:17:19;96054.84;;;-0.70;100.00
33155;BME280;19511;42.682;23.332;2023-02-17T03:19:45;95948.03;;;-1.45;100.00
33155;BME280;19511;42.682;23.332;2023-02-17T03:24:43;95942.88;;;-1.56;100.00
33155;BME280;19511;42.682;23.332;2023-02-17T03:27:08;96057.50;;;-0.87;100.00
33155;BME280;19511;42.682;23.332;2023-02-17T03:29:34;96050.31;;;-0.83;100.00
33155;BME280;19511;42.682;23.332;2023-02-17T03:31:59;96052.06;;;-0.87;100.00
33155;BME280;19511;42.682;23.332;2023-02-17T03:34:25;95953.31;;;-1.40;100.00
33155;BME280;19511;42.682;23.332;2023-02-17T03:36:50;95941.81;;;-1.37;100.00
33155;BME280;19511;42.682;23.332;2023-02-17T03:39:18;96051.16;;;-0.65;100.00
33155;BME280;19511;42.682;23.332;2023-02-17T03:41:44;96032.78;;;-0.68;100.00
33155;BME280;19511;42.682;23.332;2023-02-17T03:44:10;96027.19;;;-0.63;100.00
33155;BME280;19511;42.682;23.332;2023-02-17T03:46:38;96052.94;;;-0.60;100.00
33155;BME280;19511;42.682;23.332;2023-02-17T03:49:04;96039.16;;;-0.73;100.00
33155;BME280;19511;42.682;23.332;2023-02-17T03:51:29;95994.88;;;-0.82;100.00
33155;BME280;19511;42.682;23.332;2023-02-17T03:53:55;96044.34;;;-0.45;100.00
33155;BME280;19511;42.682;23.332;2023-02-17T03:56:20;96022.13;;;-0.56;100.00
33155;BME280;19511;42.682;23.332;2023-02-17T03:58:46;96031.56;;;-0.44;100.00
33155;BME280;19511;42.682;23.332;2023-02-17T04:01:12;96022.13;;;-0.56;100.00
33155;BME280;19511;42.682;23.332;2023-02-17T04:03:38;96029.16;;;-0.37;100.00
33155;BME280;19511;42.682;23.332;2023-02-17T04:06:05;96013.47;;;-0.49;100.00
33155;BME280;19511;42.682;23.332;2023-02-17T04:08:31;96016.84;;;-0.35;100.00
33155;BME280;19511;42.682;23.332;2023-02-17T04:10:59;96040.22;;;-0.16;100.00
33155;BME280;19511;42.682;23.332;2023-02-17T04:13:25;96044.41;;;-0.10;100.00
33155;BME280;19511;42.682;23.332;2023-02-17T04:15:51;96054.16;;;-0.09;100.00
33155;BME280;19511;42.682;23.332;2023-02-17T04:18:17;96044.53;;;-0.24;100.00
33155;BME280;19511;42.682;23.332;2023-02-17T04:20:43;96017.66;;;-0.43;100.00
33155;BME280;19511;42.682;23.332;2023-02-17T04:23:09;95943.56;;;-0.92;100.00
33155;BME280;19511;42.682;23.332;2023-02-17T04:25:35;95903.13;;;-1.11;100.00
33155;BME280;19511;42.682;23.332;2023-02-17T04:28:02;96027.41;;;-0.24;100.00
33155;BME280;19511;42.682;23.332;2023-02-17T04:30:28;96041.47;;;-0.40;100.00
33155;BME280;19511;42.682;23.332;2023-02-17T04:32:56;96032.38;;;-0.35;100.00
33155;BME280;19511;42.682;23.332;2023-02-17T04:35:25;96055.41;;;-0.32;100.00
33155;BME280;19511;42.682;23.332;2023-02-17T04:37:50;96031.56;;;-0.44;100.00
33155;BME280;19511;42.682;23.332;2023-02-17T04:40:16;96066.91;;;-0.36;100.00
33155;BME280;19511;42.682;23.332;2023-02-17T04:42:42;96051.38;;;-0.44;100.00
33155;BME280;19511;42.682;23.332;2023-02-17T04:45:08;96050.59;;;-0.44;100.00
33155;BME280;19511;42.682;23.332;2023-02-17T04:47:34;96057.59;;;-0.43;100.00
33155;BME280;19511;42.682;23.332;2023-02-17T04:49:59;96057.00;;;-0.40;100.00
33155;BME280;19511;42.682;23.332;2023-02-17T04:52:25;96050.75;;;-0.23;100.00
33155;BME280;19511;42.682;23.332;2023-02-17T04:54:50;96057.81;;;-0.22;100.00
33155;BME280;19511;42.682;23.332;2023-02-17T04:57:16;96050.78;;;-0.06;100.00
33155;BME280;19511;42.682;23.332;2023-02-17T04:59:43;96054.31;;;-0.23;100.00
33155;BME280;19511;42.682;23.332;2023-02-17T05:02:08;96034.75;;;-0.34;100.00
33155;BME280;19511;42.682;23.332;2023-02-17T05:04:34;96053.50;;;-0.14;100.00
33155;BME280;19511;42.682;23.332;2023-02-17T05:06:59;96048.06;;;-0.06;100.00
33155;BME280;19511;42.682;23.332;2023-02-17T05:09:25;96054.31;;;-0.05;100.00
33155;BME280;19511;42.682;23.332;2023-02-17T05:11:50;96071.59;;;-0.01;100.00
33155;BME280;19511;42.682;23.332;2023-02-17T05:14:16;96062.00;;;0.02;100.00
33155;BME280;19511;42.682;23.332;2023-02-17T05:16:41;96080.88;;;-0.02;100.00
33155;BME280;19511;42.682;23.332;2023-02-17T05:19:07;95948.50;;;-0.94;100.00
33155;BME280;19511;42.682;23.332;2023-02-17T05:21:32;96074.28;;;-0.27;100.00
33155;BME280;19511;42.682;23.332;2023-02-17T05:23:58;96084.50;;;-0.24;100.00
33155;BME280;19511;42.682;23.332;2023-02-17T05:26:23;96031.09;;;-0.38;100.00
33155;BME280;19511;42.682;23.332;2023-02-17T05:28:49;96072.88;;;0.02;100.00
33155;BME280;19511;42.682;23.332;2023-02-17T05:31:15;95989.19;;;-0.54;100.00
33155;BME280;19511;42.682;23.332;2023-02-17T05:33:41;96086.63;;;-0.04;100.00
33155;BME280;19511;42.682;23.332;2023-02-17T05:36:08;96090.47;;;-0.13;100.00
33155;BME280;19511;42.682;23.332;2023-02-17T05:38:36;96101.13;;;-0.35;100.00
33155;BME280;19511;42.682;23.332;2023-02-17T05:41:02;96101.44;;;-0.36;100.00
33155;BME280;19511;42.682;23.332;2023-02-17T05:43:28;96103.41;;;-0.28;100.00
33155;BME280;19511;42.682;23.332;2023-02-17T05:45:54;96101.00;;;-0.12;100.00
33155;BME280;19511;42.682;23.332;2023-02-17T05:48:19;95978.56;;;-0.82;100.00
33155;BME280;19511;42.682;23.332;2023-02-17T05:50:45;96080.56;;;-0.01;100.00
33155;BME280;19511;42.682;23.332;2023-02-17T05:53:10;96099.63;;;0.26;100.00
33155;BME280;19511;42.682;23.332;2023-02-17T05:55:36;96098.00;;;0.34;100.00
33155;BME280;19511;42.682;23.332;2023-02-17T05:58:01;96101.84;;;0.41;100.00
33155;BME280;19511;42.682;23.332;2023-02-17T06:00:27;96001.19;;;-0.03;100.00
33155;BME280;19511;42.682;23.332;2023-02-17T06:02:56;96105.34;;;0.68;100.00
33155;BME280;19511;42.682;23.332;2023-02-17T06:05:22;95988.06;;;-0.01;100.00
33155;BME280;19511;42.682;23.332;2023-02-17T06:07:47;96109.00;;;0.81;100.00
33155;BME280;19511;42.682;23.332;2023-02-17T06:10:13;96093.31;;;0.87;100.00
33155;BME280;19511;42.682;23.332;2023-02-17T06:12:39;96120.53;;;0.95;100.00
33155;BME280;19511;42.682;23.332;2023-02-17T06:15:05;96106.41;;;1.02;100.00
33155;BME280;19511;42.682;23.332;2023-02-17T06:17:30;96107.00;;;1.08;100.00
33155;BME280;19511;42.682;23.332;2023-02-17T06:19:56;96114.72;;;1.14;100.00
33155;BME280;19511;42.682;23.332;2023-02-17T06:22:21;96078.81;;;1.04;100.00
33155;BME280;19511;42.682;23.332;2023-02-17T06:24:47;96105.66;;;1.32;100.00
33155;BME280;19511;42.682;23.332;2023-02-17T06:27:12;96084.16;;;1.39;100.00
33155;BME280;19511;42.682;23.332;2023-02-17T06:29:43;96096.66;;;1.40;100.00
33155;BME280;19511;42.682;23.332;2023-02-17T06:32:09;96111.69;;;1.46;100.00
33155;BME280;19511;42.682;23.332;2023-02-17T06:34:34;96094.03;;;1.52;100.00
33155;BME280;19511;42.682;23.332;2023-02-17T06:36:59;96124.66;;;1.58;100.00
33155;BME280;19511;42.682;23.332;2023-02-17T06:39:25;96005.72;;;0.67;100.00
33155;BME280;19511;42.682;23.332;2023-02-17T06:41:50;96108.50;;;1.44;100.00
33155;BME280;19511;42.682;23.332;2023-02-17T06:44:16;96129.00;;;1.50;100.00
33155;BME280;19511;42.682;23.332;2023-02-17T06:46:41;96114.81;;;1.66;100.00
33155;BME280;19511;42.682;23.332;2023-02-17T06:49:11;96098.03;;;1.55;100.00
33155;BME280;19511;42.682;23.332;2023-02-17T06:51:37;96123.25;;;1.82;100.00
33155;BME280;19511;42.682;23.332;2023-02-17T06:54:03;96127.91;;;1.81;100.00
33155;BME280;19511;42.682;23.332;2023-02-17T06:56:29;96117.41;;;1.92;100.00
33155;BME280;19511;42.682;23.332;2023-02-17T06:58:54;96009.53;;;1.22;100.00
33155;BME280;19511;42.682;23.332;2023-02-17T07:01:22;96031.44;;;1.35;100.00
33155;BME280;19511;42.682;23.332;2023-02-17T07:03:50;96124.63;;;2.18;100.00
33155;BME280;19511;42.682;23.332;2023-02-17T07:06:16;96125.56;;;2.22;100.00
33155;BME280;19511;42.682;23.332;2023-02-17T07:08:41;96115.56;;;2.26;100.00
33155;BME280;19511;42.682;23.332;2023-02-17T07:11:09;96135.69;;;2.42;100.00
33155;BME280;19511;42.682;23.332;2023-02-17T07:13:35;96108.91;;;2.57;100.00
33155;BME280;19511;42.682;23.332;2023-02-17T07:16:03;96139.81;;;2.70;100.00
33155;BME280;19511;42.682;23.332;2023-02-17T07:18:29;96140.31;;;2.84;100.00
33155;BME280;19511;42.682;23.332;2023-02-17T07:20:55;96028.75;;;2.19;100.00
33155;BME280;19511;42.682;23.332;2023-02-17T07:23:21;96137.47;;;3.14;100.00
33155;BME280;19511;42.682;23.332;2023-02-17T07:25:46;96134.44;;;3.28;100.00
33155;BME280;19511;42.682;23.332;2023-02-17T07:28:12;96130.69;;;3.33;100.00
33155;BME280;19511;42.682;23.332;2023-02-17T07:30:44;96130.03;;;3.48;100.00
33155;BME280;19511;42.682;23.332;2023-02-17T07:33:11;96084.09;;;3.29;100.00
33155;BME280;19511;42.682;23.332;2023-02-17T07:35:43;96029.22;;;3.01;100.00
33155;BME280;19511;42.682;23.332;2023-02-17T07:38:09;96130.84;;;3.73;100.00
33155;BME280;19511;42.682;23.332;2023-02-17T07:40:37;96145.78;;;4.01;100.00
33155;BME280;19511;42.682;23.332;2023-02-17T07:43:03;96137.78;;;4.08;100.00
33155;BME280;19511;42.682;23.332;2023-02-17T07:45:28;96044.84;;;3.74;100.00
33155;BME280;19511;42.682;23.332;2023-02-17T07:47:53;96034.25;;;3.85;100.00
33155;BME280;19511;42.682;23.332;2023-02-17T07:50:19;96034.47;;;3.92;100.00
33155;BME280;19511;42.682;23.332;2023-02-17T07:52:44;96130.13;;;4.67;100.00
33155;BME280;19511;42.682;23.332;2023-02-17T07:55:10;96048.97;;;4.34;100.00
33155;BME280;19511;42.682;23.332;2023-02-17T07:57:35;96097.31;;;4.83;100.00
33155;BME280;19511;42.682;23.332;2023-02-17T08:00:01;96131.69;;;5.09;100.00
33155;BME280;19511;42.682;23.332;2023-02-17T08:02:27;96127.19;;;5.16;100.00
33155;BME280;19511;42.682;23.332;2023-02-17T08:04:53;96129.41;;;5.27;100.00
33155;BME280;19511;42.682;23.332;2023-02-17T08:07:18;96029.81;;;4.62;100.00
33155;BME280;19511;42.682;23.332;2023-02-17T08:09:44;96122.47;;;5.45;100.00
33155;BME280;19511;42.682;23.332;2023-02-17T08:12:27;96129.09;;;5.60;100.00
33155;BME280;19511;42.682;23.332;2023-02-17T08:15:11;96123.00;;;5.67;100.00
33155;BME280;19511;42.682;23.332;2023-02-17T08:17:37;96130.00;;;5.80;100.00
33155;BME280;19511;42.682;23.332;2023-02-17T08:20:03;96107.81;;;5.89;100.00
33155;BME280;19511;42.682;23.332;2023-02-17T08:22:29;96097.22;;;6.03;100.00
33155;BME280;19511;42.682;23.332;2023-02-17T08:24:55;96122.34;;;6.21;100.00
33155;BME280;19511;42.682;23.332;2023-02-17T08:27:20;96123.84;;;6.35;100.00
33155;BME280;19511;42.682;23.332;2023-02-17T08:29:46;96102.25;;;6.37;100.00
33155;BME280;19511;42.682;23.332;2023-02-17T08:32:18;96110.69;;;6.64;100.00
33155;BME280;19511;42.682;23.332;2023-02-17T08:34:43;96032.53;;;6.26;100.00
33155;BME280;19511;42.682;23.332;2023-02-17T08:37:10;96097.81;;;6.88;100.00
33155;BME280;19511;42.682;23.332;2023-02-17T08:39:35;96083.63;;;6.85;100.00
33155;BME280;19511;42.682;23.332;2023-02-17T08:42:02;96112.25;;;7.24;100.00
33155;BME280;19511;42.682;23.332;2023-02-17T08:44:27;96104.50;;;7.29;100.00
33155;BME280;19511;42.682;23.332;2023-02-17T08:46:53;96108.72;;;7.46;100.00
33155;BME280;19511;42.682;23.332;2023-02-17T08:49:22;96103.28;;;7.50;100.00
33155;BME280;19511;42.682;23.332;2023-02-17T08:51:49;96105.91;;;7.66;100.00
33155;BME280;19511;42.682;23.332;2023-02-17T08:54:15;96002.13;;;7.20;98.76
33155;BME280;19511;42.682;23.332;2023-02-17T08:56:42;96010.44;;;7.47;96.49
33155;BME280;19511;42.682;23.332;2023-02-17T08:59:09;96024.47;;;7.65;95.91
33155;BME280;19511;42.682;23.332;2023-02-17T09:01:35;96098.44;;;8.43;91.86
33155;BME280;19511;42.682;23.332;2023-02-17T09:04:02;96097.09;;;8.60;91.51
33155;BME280;19511;42.682;23.332;2023-02-17T09:06:51;96011.94;;;8.25;87.24
33155;BME280;19511;42.682;23.332;2023-02-17T09:09:20;95988.81;;;8.33;85.32
33155;BME280;19511;42.682;23.332;2023-02-17T09:11:51;96095.41;;;9.17;86.76
33155;BME280;19511;42.682;23.332;2023-02-17T09:14:17;96086.16;;;9.39;75.17
33155;BME280;19511;42.682;23.332;2023-02-17T09:16:42;96098.94;;;9.55;76.52
33155;BME280;19511;42.682;23.332;2023-02-17T09:19:07;96087.22;;;9.69;72.57
33155;BME280;19511;42.682;23.332;2023-02-17T09:21:33;95983.22;;;9.39;57.50
33155;BME280;19511;42.682;23.332;2023-02-17T09:23:58;96083.75;;;10.31;63.19
33155;BME280;19511;42.682;23.332;2023-02-17T09:26:24;96080.38;;;10.59;52.72
33155;BME280;19511;42.682;23.332;2023-02-17T09:28:49;96075.34;;;10.83;48.67
33155;BME280;19511;42.682;23.332;2023-02-17T09:31:23;96082.19;;;11.11;46.23
33155;BME280;19511;42.682;23.332;2023-02-17T09:33:49;95991.06;;;10.62;45.52
33155;BME280;19511;42.682;23.332;2023-02-17T09:36:18;96083.44;;;11.50;44.96
33155;BME280;19511;42.682;23.332;2023-02-17T09:38:44;96081.47;;;11.61;44.62
33155;BME280;19511;42.682;23.332;2023-02-17T09:44:00;95988.84;;;11.19;43.46
33155;BME280;19511;42.682;23.332;2023-02-17T09:46:29;95984.50;;;11.21;42.58
33155;BME280;19511;42.682;23.332;2023-02-17T09:49:02;96077.91;;;11.86;42.68
33155;BME280;19511;42.682;23.332;2023-02-17T09:54:22;95982.91;;;11.49;43.21
33155;BME280;19511;42.682;23.332;2023-02-17T09:56:51;96074.78;;;12.09;42.68
33155;BME280;19511;42.682;23.332;2023-02-17T10:02:35;96079.53;;;12.16;42.62
33155;BME280;19511;42.682;23.332;2023-02-17T10:05:06;95972.63;;;11.57;42.34
33155;BME280;19511;42.682;23.332;2023-02-17T10:07:50;96067.63;;;12.19;42.36
33155;BME280;19511;42.682;23.332;2023-02-17T10:10:22;96077.94;;;12.15;42.31
33155;BME280;19511;42.682;23.332;2023-02-17T10:12:57;95960.34;;;11.54;41.49
33155;BME280;19511;42.682;23.332;2023-02-17T10:15:28;96060.53;;;12.21;41.86
33155;BME280;19511;42.682;23.332;2023-02-17T10:18:12;96057.31;;;12.30;42.44
33155;BME280;19511;42.682;23.332;2023-02-17T10:20:45;96039.06;;;12.36;41.71
33155;BME280;19511;42.682;23.332;2023-02-17T10:23:21;96019.28;;;12.31;41.41
33155;BME280;19511;42.682;23.332;2023-02-17T10:26:11;96038.22;;;12.61;40.90
33155;BME280;19511;42.682;23.332;2023-02-17T10:31:44;96034.59;;;12.79;39.79
33155;BME280;19511;42.682;23.332;2023-02-17T10:37:02;95964.56;;;12.35;39.73
33155;BME280;19511;42.682;23.332;2023-02-17T10:42:00;95919.44;;;12.20;39.44
33155;BME280;19511;42.682;23.332;2023-02-17T10:44:26;96020.28;;;12.84;39.99
33155;BME280;19511;42.682;23.332;2023-02-17T10:46:52;96003.63;;;12.84;39.68
33155;BME280;19511;42.682;23.332;2023-02-17T10:49:34;96005.56;;;12.87;40.03
33155;BME280;19511;42.682;23.332;2023-02-17T10:52:13;96009.16;;;12.84;40.12
33155;BME280;19511;42.682;23.332;2023-02-17T10:54:49;95996.84;;;12.85;39.59
33155;BME280;19511;42.682;23.332;2023-02-17T10:57:19;96003.94;;;13.00;39.42
33155;BME280;19511;42.682;23.332;2023-02-17T10:59:46;95999.19;;;12.94;39.25
33155;BME280;19511;42.682;23.332;2023-02-17T11:02:27;96006.34;;;12.91;39.12
33155;BME280;19511;42.682;23.332;2023-02-17T11:04:57;96000.00;;;12.94;39.30
33155;BME280;19511;42.682;23.332;2023-02-17T11:07:36;96009.06;;;13.02;39.82
33155;BME280;19511;42.682;23.332;2023-02-17T11:10:24;96008.63;;;13.11;39.28
33155;BME280;19511;42.682;23.332;2023-02-17T11:12:51;95911.75;;;12.56;39.26
33155;BME280;19511;42.682;23.332;2023-02-17T11:15:23;95989.13;;;13.18;39.30
33155;BME280;19511;42.682;23.332;2023-02-17T11:17:50;95979.31;;;13.02;39.36
33155;BME280;19511;42.682;23.332;2023-02-17T11:25:58;96004.47;;;13.41;39.32
33155;BME280;19511;42.682;23.332;2023-02-17T11:28:24;95914.72;;;12.91;37.81
33155;BME280;19511;42.682;23.332;2023-02-17T11:30:55;95971.25;;;13.22;38.13
33155;BME280;19511;42.682;23.332;2023-02-17T11:33:43;95981.50;;;13.29;38.62
33155;BME280;19511;42.682;23.332;2023-02-17T11:36:22;95975.88;;;13.47;38.87
33155;BME280;19511;42.682;23.332;2023-02-17T11:38:48;95885.72;;;12.99;38.82
33155;BME280;19511;42.682;23.332;2023-02-17T11:41:13;95889.25;;;13.03;39.16
33155;BME280;19511;42.682;23.332;2023-02-17T11:46:46;95960.72;;;13.52;38.77
33155;BME280;19511;42.682;23.332;2023-02-17T11:52:15;95888.84;;;13.01;38.60
33155;BME280;19511;42.682;23.332;2023-02-17T11:58:02;95961.38;;;13.70;38.74
33155;BME280;19511;42.682;23.332;2023-02-17T12:09:26;95938.13;;;13.50;38.31
33155;BME280;19511;42.682;23.332;2023-02-17T12:15:00;95942.06;;;13.52;38.76
33155;BME280;19511;42.682;23.332;2023-02-17T12:17:44;95942.47;;;13.51;38.67
33155;BME280;19511;42.682;23.332;2023-02-17T12:34:19;95904.19;;;13.69;38.58
33155;BME280;19511;42.682;23.332;2023-02-17T12:36:50;95814.91;;;13.18;38.10
33155;BME280;19511;42.682;23.332;2023-02-17T12:39:29;95905.59;;;13.85;37.99
33155;BME280;19511;42.682;23.332;2023-02-17T12:44:34;95889.38;;;13.80;38.04
33155;BME280;19511;42.682;23.332;2023-02-17T12:47:08;95896.19;;;13.75;37.94
33155;BME280;19511;42.682;23.332;2023-02-17T12:49:46;95893.81;;;13.74;38.32
33155;BME280;19511;42.682;23.332;2023-02-17T12:52:19;95877.22;;;13.66;38.29
33155;BME280;19511;42.682;23.332;2023-02-17T12:57:36;95878.13;;;13.94;38.47
33155;BME280;19511;42.682;23.332;2023-02-17T13:00:28;95837.13;;;13.64;38.02
33155;BME280;19511;42.682;23.332;2023-02-17T13:02:58;95876.63;;;13.82;38.16
33155;BME280;19511;42.682;23.332;2023-02-17T13:05:38;95879.34;;;13.90;38.33
33155;BME280;19511;42.682;23.332;2023-02-17T13:08:15;95873.66;;;14.00;38.14
33155;BME280;19511;42.682;23.332;2023-02-17T13:10:43;95870.78;;;14.08;38.07
33155;BME280;19511;42.682;23.332;2023-02-17T13:13:24;95851.41;;;14.00;37.74
33155;BME280;19511;42.682;23.332;2023-02-17T13:16:07;95799.72;;;13.68;37.51
33155;BME280;19511;42.682;23.332;2023-02-17T13:18:37;95795.78;;;13.66;38.06
33155;BME280;19511;42.682;23.332;2023-02-17T13:23:43;95872.34;;;14.43;37.02
33155;BME280;19511;42.682;23.332;2023-02-17T13:26:23;95878.59;;;14.51;36.79
33155;BME280;19511;42.682;23.332;2023-02-17T13:28:50;95880.22;;;14.48;36.26
33155;BME280;19511;42.682;23.332;2023-02-17T13:31:24;95871.56;;;14.43;35.66
33155;BME280;19511;42.682;23.332;2023-02-17T13:33:53;95829.50;;;14.33;36.02
33155;BME280;19511;42.682;23.332;2023-02-17T13:41:21;95873.22;;;14.67;36.18
33155;BME280;19511;42.682;23.332;2023-02-17T13:43:47;95833.75;;;14.45;35.80
33155;BME280;19511;42.682;23.332;2023-02-17T13:46:22;95867.59;;;14.71;36.12
33155;BME280;19511;42.682;23.332;2023-02-17T13:49:05;95874.72;;;14.76;34.70
33155;BME280;19511;42.682;23.332;2023-02-17T13:51:32;95867.13;;;14.76;34.27
33155;BME280;19511;42.682;23.332;2023-02-17T13:54:06;95844.41;;;14.50;33.36
33155;BME280;19511;42.682;23.332;2023-02-17T13:56:32;95868.63;;;14.53;32.73
33155;BME280;19511;42.682;23.332;2023-02-17T13:59:14;95858.84;;;14.42;32.94
33155;BME280;19511;42.682;23.332;2023-02-17T14:01:43;95856.66;;;14.26;32.98
33155;BME280;19511;42.682;23.332;2023-02-17T14:04:19;95865.66;;;14.37;33.79
33155;BME280;19511;42.682;23.332;2023-02-17T14:06:45;95781.69;;;13.84;34.44
33155;BME280;19511;42.682;23.332;2023-02-17T14:11:48;95767.84;;;13.80;35.29
33155;BME280;19511;42.682;23.332;2023-02-17T14:14:14;95850.59;;;14.34;35.40
33155;BME280;19511;42.682;23.332;2023-02-17T14:16:41;95854.16;;;14.35;35.72
33155;BME280;19511;42.682;23.332;2023-02-17T14:19:16;95858.75;;;14.18;35.64
33155;BME280;19511;42.682;23.332;2023-02-17T14:21:44;95770.88;;;13.59;36.15
33155;BME280;19511;42.682;23.332;2023-02-17T14:24:27;95853.00;;;13.98;36.28
33155;BME280;19511;42.682;23.332;2023-02-17T14:29:41;95868.22;;;13.90;36.92
33155;BME280;19511;42.682;23.332;2023-02-17T14:32:31;95836.28;;;13.67;37.52
33155;BME280;19511;42.682;23.332;2023-02-17T14:37:31;95857.75;;;13.66;38.21
33155;BME280;19511;42.682;23.332;2023-02-17T14:40:05;95709.13;;;12.60;38.59
33155;BME280;19511;42.682;23.332;2023-02-17T14:42:31;95843.25;;;13.48;38.97
33155;BME280;19511;42.682;23.332;2023-02-17T14:44:56;95779.28;;;13.10;39.09
33155;BME280;19511;42.682;23.332;2023-02-17T14:47:21;95874.00;;;13.71;39.39